createdAt,value
2022-07-28T00:03:32.281Z,975.3
2022-07-28T00:09:03.838Z,975.01
2022-07-28T00:14:40.118Z,974.82
2022-07-28T00:20:11.782Z,974.36
2022-07-28T00:25:43.411Z,974.49
2022-07-28T00:31:15.599Z,974.57
2022-07-28T00:36:46.920Z,974.33
2022-07-28T00:42:18.561Z,974.19
2022-07-28T00:47:50.268Z,974.31
2022-07-28T00:53:22.479Z,974.29
2022-07-28T00:58:53.712Z,974.19
2022-07-28T01:04:25.780Z,974.23
2022-07-28T01:09:59.694Z,974.03
2022-07-28T01:15:35.289Z,973.77
2022-07-28T01:21:07.150Z,973.7
2022-07-28T01:26:38.769Z,973.82
2022-07-28T01:32:10.517Z,973.62
2022-07-28T01:37:42.182Z,973.64
2022-07-28T01:43:14.170Z,973.73
2022-07-28T01:48:45.824Z,973.54
2022-07-28T01:54:18.434Z,973.6
2022-07-28T01:59:49.077Z,973.43
2022-07-28T02:05:22.837Z,973.38
2022-07-28T02:10:52.489Z,973.29
2022-07-28T02:16:29.036Z,973.37
2022-07-28T02:22:00.474Z,973.36
2022-07-28T02:27:32.150Z,973.48
2022-07-28T02:33:03.827Z,973.44
2022-07-28T02:38:35.540Z,973.09
2022-07-28T02:44:07.222Z,973.35
2022-07-28T02:49:38.973Z,973.21
2022-07-28T02:55:10.862Z,973.29
2022-07-28T03:00:42.444Z,973.16
2022-07-28T03:06:14.145Z,973.09
2022-07-28T03:11:45.877Z,973.38
2022-07-28T03:17:22.186Z,973.31
2022-07-28T03:22:53.807Z,973.23
2022-07-28T03:28:25.386Z,973.34
2022-07-28T03:33:57.223Z,973.18
2022-07-28T03:39:33.308Z,973.24
2022-07-28T03:45:01.208Z,973.2
2022-07-28T03:50:32.372Z,973.43
2022-07-28T03:56:04.650Z,973.58
2022-07-28T04:01:36.063Z,973.66
2022-07-28T04:07:08.733Z,973.81
2022-07-28T04:12:39.370Z,973.87
2022-07-28T04:18:17.279Z,973.89
2022-07-28T04:23:49.171Z,974.01
2022-07-28T04:29:28.070Z,974.31
2022-07-28T04:34:59.514Z,974.39
2022-07-28T04:40:31.147Z,974.75
2022-07-28T04:46:03.047Z,974.97
2022-07-28T04:51:34.663Z,975.03
2022-07-28T04:57:12.980Z,975.02
2022-07-28T05:02:38.165Z,975.21
2022-07-28T05:08:09.834Z,975.34
2022-07-28T05:13:41.599Z,975.48
2022-07-28T05:19:17.620Z,975.63
2022-07-28T05:24:49.359Z,975.87
2022-07-28T05:30:21.104Z,976.09
2022-07-28T05:35:52.856Z,976.46
2022-07-28T05:41:24.573Z,976.51
2022-07-28T05:46:56.514Z,976.56
2022-07-28T05:52:28.118Z,976.89
2022-07-28T05:57:59.726Z,977.17
2022-07-28T06:03:31.418Z,976.76
2022-07-28T06:09:03.202Z,976.91
2022-07-28T06:14:34.824Z,977.33
2022-07-28T06:20:11.378Z,978.01
2022-07-28T06:25:42.790Z,978.13
2022-07-28T06:31:14.548Z,977.88
2022-07-28T06:36:46.191Z,978.27
2022-07-28T06:42:17.916Z,978.5
2022-07-28T06:47:49.769Z,978.65
2022-07-28T06:53:21.424Z,979.01
2022-07-28T06:58:53.329Z,979.03
2022-07-28T07:04:24.927Z,979.0
2022-07-28T07:09:56.600Z,979.07
2022-07-28T07:15:28.361Z,979.05
2022-07-28T07:21:04.631Z,979.17
2022-07-28T07:26:36.151Z,979.53
2022-07-28T07:32:11.690Z,979.39
2022-07-28T07:37:39.947Z,978.91
2022-07-28T07:43:11.511Z,978.21
2022-07-28T07:48:43.356Z,979.05
2022-07-28T07:54:15.853Z,979.27
2022-07-28T07:59:46.468Z,979.03
2022-07-28T08:05:19.542Z,979.28
2022-07-28T08:10:50.005Z,979.69
2022-07-28T08:16:22.120Z,979.49
2022-07-28T08:21:57.875Z,979.73
2022-07-28T08:27:29.541Z,978.52
2022-07-28T08:33:01.290Z,979.14
2022-07-28T08:38:32.917Z,979.18
2022-07-28T08:44:04.719Z,979.04
2022-07-28T08:49:41.447Z,979.81
2022-07-28T08:55:08.305Z,979.61
2022-07-28T09:00:39.971Z,979.27
2022-07-28T09:06:11.789Z,979.4
2022-07-28T09:11:43.497Z,979.07
2022-07-28T09:17:15.130Z,979.54
2022-07-28T09:22:51.348Z,979.67
2022-07-28T09:28:23.019Z,978.86
2022-07-28T09:33:54.821Z,980.0
2022-07-28T09:39:26.547Z,979.13
2022-07-28T09:45:24.469Z,978.94
2022-07-28T09:50:29.924Z,978.98
2022-07-28T09:56:01.786Z,978.92
2022-07-28T10:01:37.902Z,979.16
2022-07-28T10:07:05.084Z,978.8
2022-07-28T10:12:36.971Z,978.72
2022-07-28T10:18:08.518Z,979.2
2022-07-28T10:23:44.659Z,979.23
2022-07-28T10:29:16.421Z,979.04
2022-07-28T10:34:48.086Z,978.48
2022-07-28T10:40:19.822Z,978.81
2022-07-28T10:46:11.928Z,978.15
2022-07-28T10:51:31.159Z,978.49
2022-07-28T10:56:59.466Z,977.94
2022-07-28T11:02:27.092Z,978.56
2022-07-28T11:07:58.547Z,977.78
2022-07-28T11:13:30.167Z,977.8
2022-07-28T11:19:36.353Z,976.75
2022-07-28T11:24:45.407Z,977.41
2022-07-28T11:30:11.698Z,977.32
2022-07-28T11:35:43.432Z,977.3
2022-07-28T11:41:15.244Z,977.65
2022-07-28T11:46:53.674Z,977.81
2022-07-28T11:52:21.341Z,977.32
2022-07-28T11:57:54.544Z,977.17
2022-07-28T12:03:56.579Z,976.9
2022-07-28T12:08:53.724Z,976.89
2022-07-28T12:14:25.430Z,977.17
2022-07-28T12:19:58.439Z,977.22
2022-07-28T12:25:34.637Z,977.52
2022-07-28T12:31:09.801Z,977.21
2022-07-28T12:36:37.661Z,976.73
2022-07-28T12:42:09.522Z,976.56
2022-07-28T12:47:42.076Z,976.72
2022-07-28T12:53:12.881Z,977.06
2022-07-28T12:58:44.550Z,976.25
2022-07-28T13:04:17.789Z,976.55
2022-07-28T13:10:00.984Z,976.61
2022-07-28T13:15:19.742Z,976.43
2022-07-28T13:20:51.572Z,976.25
2022-07-28T13:26:29.667Z,976.84
2022-07-28T13:32:01.954Z,976.12
2022-07-28T13:37:33.020Z,976.11
2022-07-28T13:43:12.194Z,976.27
2022-07-28T13:48:36.968Z,975.96
2022-07-28T13:54:08.251Z,975.93
2022-07-28T13:59:39.974Z,975.83
2022-07-28T14:05:11.826Z,975.71
2022-07-28T14:10:48.979Z,976.24
2022-07-28T14:16:15.627Z,976.24
2022-07-28T14:21:46.970Z,976.23
2022-07-28T14:27:29.745Z,976.06
2022-07-28T14:32:54.703Z,975.77
2022-07-28T14:38:54.910Z,975.6
2022-07-28T14:43:58.137Z,975.1
2022-07-28T14:49:29.893Z,975.05
2022-07-28T14:55:02.004Z,974.63
2022-07-28T15:00:33.418Z,974.81
2022-07-28T15:06:05.286Z,975.55
2022-07-28T15:11:36.824Z,975.4
2022-07-28T15:17:08.454Z,975.19
2022-07-28T15:22:40.108Z,975.11
2022-07-28T15:28:19.815Z,975.15
2022-07-28T15:33:58.990Z,974.53
2022-07-28T15:39:20.527Z,974.6
2022-07-28T15:44:52.195Z,974.7
2022-07-28T15:50:23.928Z,974.31
2022-07-28T15:55:58.607Z,974.15
2022-07-28T16:01:27.541Z,973.58
2022-07-28T16:06:59.058Z,973.36
2022-07-28T16:12:30.854Z,973.35
2022-07-28T16:18:02.500Z,973.74
2022-07-28T16:23:34.265Z,973.67
2022-07-28T16:29:10.426Z,973.23
2022-07-28T16:34:42.146Z,973.24
2022-07-28T16:40:13.819Z,973.05
2022-07-28T16:45:45.628Z,972.99
2022-07-28T16:51:21.080Z,972.86
2022-07-28T16:56:49.069Z,972.67
2022-07-28T17:02:21.245Z,972.66
2022-07-28T17:07:52.462Z,972.3
2022-07-28T17:13:24.301Z,972.67
2022-07-28T17:18:55.967Z,972.77
2022-07-28T17:24:27.616Z,972.34
2022-07-28T17:30:07.890Z,972.54
2022-07-28T17:35:39.978Z,972.39
2022-07-28T17:41:11.270Z,972.21
2022-07-28T17:46:43.568Z,972.3
2022-07-28T17:52:14.817Z,972.34
2022-07-28T17:57:47.569Z,972.31
2022-07-28T18:03:18.487Z,972.46
2022-07-28T18:08:49.907Z,971.99
2022-07-28T18:14:22.213Z,972.04
2022-07-28T18:19:53.467Z,972.23
2022-07-28T18:25:25.129Z,972.28
2022-07-28T18:31:01.321Z,972.38
2022-07-28T18:36:32.906Z,972.35
2022-07-28T18:42:04.882Z,972.19
2022-07-28T18:47:48.423Z,972.16
2022-07-28T18:53:08.208Z,971.98
2022-07-28T18:58:40.263Z,971.92
2022-07-28T19:04:11.723Z,971.81
2022-07-28T19:09:43.327Z,972.29
2022-07-28T19:15:15.078Z,971.85
2022-07-28T19:20:46.851Z,971.91
2022-07-28T19:26:18.498Z,971.91
2022-07-28T19:31:56.606Z,972.44
2022-07-28T19:37:28.335Z,972.27
2022-07-28T19:43:00.216Z,972.44
2022-07-28T19:48:31.769Z,972.75
2022-07-28T19:54:03.514Z,972.89
2022-07-28T19:59:36.058Z,973.04
2022-07-28T20:05:06.943Z,973.04
2022-07-28T20:10:38.735Z,972.89
2022-07-28T20:16:10.511Z,973.08
2022-07-28T20:21:42.127Z,973.17
2022-07-28T20:27:14.002Z,973.23
2022-07-28T20:32:49.946Z,973.3
2022-07-28T20:38:21.669Z,973.02
2022-07-28T20:44:30.552Z,973.01
2022-07-28T20:49:25.450Z,973.76
2022-07-28T20:54:56.821Z,973.83
2022-07-28T21:00:28.531Z,975.12
2022-07-28T21:06:00.558Z,975.47
2022-07-28T21:11:36.418Z,975.17
2022-07-28T21:17:04.055Z,974.4
2022-07-28T21:22:35.460Z,974.45
2022-07-28T21:28:07.145Z,974.03
2022-07-28T21:33:43.310Z,974.22
2022-07-28T21:39:14.997Z,974.94
2022-07-28T21:44:46.838Z,975.26
2022-07-28T21:50:18.453Z,975.77
2022-07-28T21:55:50.175Z,975.6
2022-07-28T22:01:22.109Z,975.72
2022-07-28T22:06:53.681Z,975.44
2022-07-28T22:12:25.446Z,976.12
2022-07-28T22:17:57.214Z,975.74
2022-07-28T22:23:30.598Z,976.34
2022-07-28T22:29:00.813Z,976.19
2022-07-28T22:34:42.691Z,976.81
2022-07-28T22:40:14.481Z,976.69
2022-07-28T22:45:52.070Z,976.3
2022-07-28T22:51:18.950Z,977.0
2022-07-28T22:56:50.482Z,976.3
2022-07-28T23:02:29.918Z,975.99
2022-07-28T23:08:00.178Z,975.21
2022-07-28T23:13:31.923Z,976.82
2022-07-28T23:19:03.671Z,977.05
2022-07-28T23:24:35.352Z,977.1
2022-07-28T23:30:07.130Z,977.56
2022-07-28T23:35:45.223Z,977.25
2022-07-28T23:41:17.023Z,977.56
2022-07-28T23:46:49.809Z,977.43
2022-07-28T23:52:20.504Z,977.09
2022-07-28T23:57:52.195Z,977.32
